createdAt,value
2022-12-17T00:03:40.160Z,3.4
2022-12-17T00:09:05.628Z,3.4
2022-12-17T00:14:49.973Z,3.3
2022-12-17T00:20:13.881Z,3.3
2022-12-17T00:25:43.450Z,3.2
2022-12-17T00:31:24.173Z,3.1
2022-12-17T00:37:02.812Z,3.1
2022-12-17T00:42:43.587Z,3.1
2022-12-17T00:47:52.049Z,3.1
2022-12-17T00:53:16.498Z,3.1
2022-12-17T00:58:58.103Z,3.1
2022-12-17T01:04:25.795Z,3.1
2022-12-17T01:09:48.186Z,3.1
2022-12-17T01:15:16.590Z,3.1
2022-12-17T01:20:41.842Z,3.1
2022-12-17T01:26:24.469Z,3.1
2022-12-17T01:32:08.801Z,3.1
2022-12-17T01:37:46.913Z,3.1
2022-12-17T01:43:25.081Z,3.2
2022-12-17T01:49:03.209Z,3.3
2022-12-17T01:54:41.378Z,3.3
2022-12-17T02:00:02.794Z,3.3
2022-12-17T02:05:11.250Z,3.4
2022-12-17T02:10:32.970Z,3.4
2022-12-17T02:15:55.542Z,3.4
2022-12-17T02:21:18.361Z,3.5
2022-12-17T02:26:41.199Z,3.6
2022-12-17T02:32:18.982Z,3.6
2022-12-17T02:37:58.536Z,3.6
2022-12-17T02:43:37.779Z,3.7
2022-12-17T02:49:15.288Z,3.6
2022-12-17T02:54:37.306Z,3.6
2022-12-17T03:00:02.660Z,3.6
2022-12-17T03:06:16.603Z,3.6
2022-12-17T03:11:54.847Z,3.6
2022-12-17T03:17:33.930Z,3.5
2022-12-17T03:23:11.867Z,3.5
2022-12-17T03:28:50.335Z,3.6
2022-12-17T03:34:18.803Z,3.6
2022-12-17T03:39:55.656Z,3.5
2022-12-17T03:45:32.917Z,3.5
2022-12-17T03:56:31.808Z,3.4
2022-12-17T04:02:10.424Z,3.4
2022-12-17T04:07:55.737Z,3.5
2022-12-17T04:13:35.953Z,3.5
2022-12-17T04:19:17.199Z,3.5
2022-12-17T04:24:38.975Z,3.5
2022-12-17T04:30:15.448Z,3.6
2022-12-17T04:36:00.065Z,3.6
2022-12-17T04:41:37.947Z,3.7
2022-12-17T04:47:15.718Z,3.7
2022-12-17T04:52:38.382Z,3.8
2022-12-17T04:58:16.132Z,3.9
2022-12-17T05:03:55.758Z,3.9
2022-12-17T05:09:18.033Z,3.9
2022-12-17T05:14:55.946Z,4.1
2022-12-17T05:20:40.423Z,4.2
2022-12-17T05:26:22.020Z,4.4
2022-12-17T05:32:08.056Z,4.7
2022-12-17T05:37:45.863Z,4.9
2022-12-17T05:43:23.863Z,5.2
2022-12-17T05:49:02.288Z,5.4
2022-12-17T05:54:44.208Z,5.4
2022-12-17T06:00:12.296Z,5.4
2022-12-17T06:05:36.599Z,5.4
2022-12-17T06:11:13.378Z,5.3
2022-12-17T06:16:36.956Z,5.3
2022-12-17T06:22:00.827Z,5.3
2022-12-17T06:27:38.748Z,5.6
2022-12-17T06:33:16.787Z,6.6
2022-12-17T06:38:58.282Z,8.6
2022-12-17T06:44:40.062Z,10.5
2022-12-17T06:50:19.423Z,11.5
2022-12-17T06:55:57.698Z,12.7
2022-12-17T07:01:40.005Z,15.8
2022-12-17T07:07:19.284Z,17.9
2022-12-17T07:13:05.839Z,18.2
2022-12-17T07:18:43.240Z,18
2022-12-17T07:24:05.287Z,17.4
2022-12-17T07:29:28.846Z,16.5
2022-12-17T07:35:11.658Z,15.7
2022-12-17T07:40:50.176Z,15.1
2022-12-17T07:46:29.272Z,14.8
2022-12-17T07:52:06.416Z,14.2
2022-12-17T07:57:33.215Z,13.8
2022-12-17T08:03:13.340Z,13.8
2022-12-17T08:08:55.675Z,14.2
2022-12-17T08:14:24.078Z,14.4
2022-12-17T08:19:39.300Z,14.6
2022-12-17T08:25:18.488Z,14.7
2022-12-17T08:31:38.617Z,14.4
2022-12-17T08:37:17.822Z,14.3
2022-12-17T08:42:59.882Z,14.8
2022-12-17T08:48:40.277Z,18.1
2022-12-17T08:54:18.248Z,20.9
2022-12-17T09:05:36.990Z,20.7
2022-12-17T09:11:14.706Z,20.4
2022-12-17T09:16:52.500Z,20.4
2022-12-17T09:22:31.420Z,20.4
2022-12-17T09:28:15.419Z,19.9
2022-12-17T09:33:57.319Z,19.2
2022-12-17T09:39:41.684Z,18.3
2022-12-17T09:45:09.619Z,17.3
2022-12-17T09:50:36.320Z,16.3
2022-12-17T09:56:14.668Z,15.3
2022-12-17T10:01:37.501Z,14.7
2022-12-17T10:07:18.340Z,14.2
2022-12-17T10:13:02.717Z,13.9
2022-12-17T10:18:41.836Z,13.5
2022-12-17T10:24:23.849Z,13.1
2022-12-17T10:30:05.998Z,12.8
2022-12-17T10:35:28.357Z,12.4
2022-12-17T10:41:05.517Z,12.1
2022-12-17T10:46:50.554Z,11.9
2022-12-17T10:52:32.739Z,11.7
2022-12-17T10:58:15.786Z,11.7
2022-12-17T11:03:46.394Z,12.3
2022-12-17T11:09:31.267Z,15.2
2022-12-17T11:15:23.149Z,18.1
2022-12-17T11:21:03.873Z,18.9
2022-12-17T11:26:41.904Z,18.8
2022-12-17T11:32:19.024Z,18.4
2022-12-17T11:38:05.445Z,17.8
2022-12-17T11:43:45.368Z,17.4
2022-12-17T11:48:55.807Z,16.9
2022-12-17T11:54:40.058Z,16.4
2022-12-17T12:00:26.467Z,16.2
2022-12-17T12:06:12.374Z,15.7
2022-12-17T12:11:50.356Z,15.5
2022-12-17T12:17:28.972Z,15.4
2022-12-17T12:23:08.899Z,16.1
2022-12-17T12:28:51.632Z,18
2022-12-17T12:34:36.642Z,18.4
2022-12-17T12:40:14.907Z,18.8
2022-12-17T12:45:52.585Z,18.9
2022-12-17T12:51:34.069Z,19.1
2022-12-17T12:57:12.047Z,19.3
2022-12-17T13:02:57.694Z,19.2
2022-12-17T13:14:09.479Z,18.1
2022-12-17T13:19:50.167Z,17.6
2022-12-17T13:25:33.668Z,17.1
2022-12-17T13:31:17.941Z,16.8
2022-12-17T13:36:42.733Z,16.7
2022-12-17T13:42:22.319Z,16.6
2022-12-17T13:47:59.814Z,16.4
2022-12-17T13:54:15.218Z,16.2
2022-12-17T13:59:55.378Z,16.6
2022-12-17T14:06:06.394Z,17.3
2022-12-17T14:11:43.939Z,17.6
2022-12-17T14:17:25.157Z,17.5
2022-12-17T14:22:51.220Z,17.1
2022-12-17T14:28:28.646Z,16.5
2022-12-17T14:34:57.326Z,15.9
2022-12-17T14:40:59.364Z,15.4
2022-12-17T14:46:41.042Z,14.8
2022-12-17T14:52:19.629Z,14.3
2022-12-17T14:57:57.427Z,13.7
2022-12-17T15:03:42.036Z,13.1
2022-12-17T15:09:04.735Z,12.6
2022-12-17T15:14:30.445Z,12.1
2022-12-17T15:20:13.877Z,11.6
2022-12-17T15:25:21.118Z,11.1
2022-12-17T15:30:51.863Z,10.5
2022-12-17T15:36:33.341Z,9.9
2022-12-17T15:42:13.938Z,9.4
2022-12-17T15:47:54.727Z,9.1
2022-12-17T15:53:39.898Z,8.8
2022-12-17T15:59:20.181Z,8.5
2022-12-17T16:04:35.393Z,8.3
2022-12-17T16:10:19.151Z,8
2022-12-17T16:15:40.876Z,7.8
2022-12-17T16:21:08.042Z,7.7
2022-12-17T16:26:36.953Z,7.6
2022-12-17T16:32:15.041Z,7.4
2022-12-17T16:37:59.994Z,7.4
2022-12-17T16:43:43.131Z,7.3
2022-12-17T16:49:22.213Z,7.2
2022-12-17T16:55:07.987Z,7.1
2022-12-17T17:00:35.773Z,7.1
2022-12-17T17:06:19.482Z,7.1
2022-12-17T17:11:57.426Z,7
2022-12-17T17:17:20.400Z,6.9
2022-12-17T17:23:35.094Z,6.8
2022-12-17T17:29:33.382Z,6.7
2022-12-17T17:35:51.642Z,6.6
2022-12-17T17:41:30.719Z,6.6
2022-12-17T17:47:09.407Z,6.4
2022-12-17T17:53:28.554Z,6.3
2022-12-17T17:59:06.785Z,6.3
2022-12-17T18:04:52.723Z,6.1
2022-12-17T18:10:59.046Z,6
2022-12-17T18:16:58.889Z,5.9
2022-12-17T18:22:39.370Z,6.1
2022-12-17T18:28:17.665Z,6.1
2022-12-17T18:33:40.886Z,6.3
2022-12-17T18:39:18.252Z,6.5
2022-12-17T18:45:02.255Z,6.6
2022-12-17T18:50:41.982Z,6.8
2022-12-17T18:57:00.375Z,6.8
2022-12-17T19:02:40.316Z,6.9
2022-12-17T19:08:23.074Z,7
2022-12-17T19:14:02.990Z,7.1
2022-12-17T19:19:41.965Z,7.2
2022-12-17T19:25:19.356Z,7.2
2022-12-17T19:30:45.581Z,7.3
2022-12-17T19:36:28.181Z,7.3
2022-12-17T19:42:06.854Z,7.3
2022-12-17T19:47:44.815Z,7.2
2022-12-17T19:53:26.227Z,7.2
2022-12-17T19:59:12.063Z,7.3
2022-12-17T20:04:52.353Z,7.2
2022-12-17T20:10:30.642Z,7.2
2022-12-17T20:16:13.180Z,7.3
2022-12-17T20:21:51.030Z,7.3
2022-12-17T20:27:28.709Z,7.3
2022-12-17T20:32:40.178Z,7.3
2022-12-17T20:38:02.880Z,7.3
2022-12-17T20:43:43.657Z,7.3
2022-12-17T20:49:10.251Z,7.3
2022-12-17T20:54:48.950Z,7.3
2022-12-17T21:00:32.830Z,7.3
2022-12-17T21:06:13.003Z,7.3
2022-12-17T21:11:57.397Z,7.3
2022-12-17T21:17:11.872Z,7.3
2022-12-17T21:22:44.580Z,7.2
2022-12-17T21:28:11.874Z,7.2
2022-12-17T21:32:51.699Z,7.1
2022-12-17T21:38:05.707Z,7.1
2022-12-17T21:43:31.282Z,7
2022-12-17T21:49:15.759Z,6.9
2022-12-17T21:54:56.230Z,6.9
2022-12-17T22:00:19.594Z,6.8
2022-12-17T22:06:13.947Z,6.8
2022-12-17T22:13:30.631Z,6.7
2022-12-17T22:19:11.101Z,6.6
2022-12-17T22:24:36.840Z,6.6
2022-12-17T22:30:01.837Z,6.6
2022-12-17T22:46:04.833Z,6.4
2022-12-17T22:52:16.538Z,6.3
2022-12-17T22:59:05.764Z,6.3
2022-12-17T23:04:50.820Z,6.2
2022-12-17T23:10:29.317Z,6.1
2022-12-17T23:16:07.026Z,6.1
2022-12-17T23:21:44.693Z,6
2022-12-17T23:27:10.396Z,5.9
2022-12-17T23:32:47.985Z,5.9
2022-12-17T23:38:14.043Z,5.8
2022-12-17T23:43:53.647Z,5.7
2022-12-17T23:49:36.009Z,5.6
2022-12-17T23:55:14.599Z,5.6
